TimeEDT,TemperatureF,Dew PointF,Humidity,Sea Level PressureIn,VisibilityMPH,Wind Direction,Wind SpeedMPH,Gust SpeedMPH,PrecipitationIn,Events,Conditions,WindDirDegrees,DateUTC
12:53 AM,71.1,66.0,84,30.16,10.0,SSW,3.5,-,N/A,,Clear,210,2014-05-08 04:53:00
1:53 AM,71.1,66.9,87,30.16,10.0,SSW,4.6,-,N/A,,Clear,200,2014-05-08 05:53:00
2:53 AM,70.0,66.0,87,30.14,10.0,South,4.6,-,N/A,,Clear,180,2014-05-08 06:53:00
3:53 AM,70.0,66.9,90,30.14,10.0,SSW,4.6,-,N/A,,Clear,200,2014-05-08 07:53:00
4:53 AM,71.1,66.9,87,30.16,10.0,SSW,4.6,-,N/A,,Clear,210,2014-05-08 08:53:00
5:53 AM,69.1,66.0,90,30.17,10.0,SW,3.5,-,N/A,,Scattered Clouds,220,2014-05-08 09:53:00
6:53 AM,66.9,64.0,90,30.19,7.0,Calm,Calm,-,N/A,Fog,Patches of Fog,0,2014-05-08 10:53:00
7:53 AM,71.1,68.0,90,30.20,6.0,Calm,Calm,-,N/A,,Mostly Cloudy,0,2014-05-08 11:53:00
8:53 AM,73.4,68.0,83,30.23,10.0,WSW,6.9,-,N/A,,Scattered Clouds,240,2014-05-08 12:53:00
9:53 AM,79.0,66.9,66,30.24,10.0,SW,11.5,-,N/A,,Scattered Clouds,230,2014-05-08 13:53:00
10:53 AM,84.0,64.0,51,30.25,10.0,SW,10.4,-,N/A,,Scattered Clouds,220,2014-05-08 14:53:00
11:53 AM,86.0,63.0,46,30.24,10.0,SW,11.5,-,N/A,,Mostly Cloudy,220,2014-05-08 15:53:00
12:53 PM,88.0,61.0,40,30.22,10.0,WSW,6.9,-,N/A,,Scattered Clouds,250,2014-05-08 16:53:00
1:53 PM,89.1,57.9,35,30.21,10.0,SW,5.8,-,N/A,,Scattered Clouds,230,2014-05-08 17:53:00
2:53 PM,91.0,57.0,32,30.19,10.0,South,8.1,-,N/A,,Scattered Clouds,190,2014-05-08 18:53:00
3:53 PM,90.0,64.0,42,30.16,10.0,SSE,11.5,-,N/A,,Scattered Clouds,160,2014-05-08 19:53:00
4:53 PM,88.0,64.0,45,30.15,10.0,SSE,13.8,-,N/A,,Scattered Clouds,160,2014-05-08 20:53:00
5:53 PM,84.9,62.1,46,30.15,10.0,SSE,15.0,-,N/A,,Scattered Clouds,160,2014-05-08 21:53:00
6:53 PM,82.9,60.1,46,30.16,10.0,SSE,15.0,-,N/A,,Scattered Clouds,160,2014-05-08 22:53:00
7:53 PM,78.1,62.1,58,30.18,10.0,South,10.4,-,N/A,,Scattered Clouds,180,2014-05-08 23:53:00
8:53 PM,75.0,66.0,73,30.20,10.0,South,9.2,-,N/A,,Scattered Clouds,170,2014-05-09 00:53:00
9:53 PM,73.9,68.0,82,30.20,10.0,South,8.1,-,N/A,,Scattered Clouds,170,2014-05-09 01:53:00
10:53 PM,73.0,69.1,87,30.20,10.0,South,6.9,-,N/A,,Partly Cloudy,170,2014-05-09 02:53:00
11:53 PM,72.0,69.1,91,30.19,10.0,SSE,5.8,-,N/A,,Partly Cloudy,160,2014-05-09 03:53:00